createdAt,value
2019-05-17T00:03:17.003Z,74.55
2019-05-17T00:06:41.461Z,73.73
2019-05-17T00:10:06.807Z,74.15
2019-05-17T00:13:30.516Z,74.46
2019-05-17T00:16:53.791Z,74.38
2019-05-17T00:20:17.533Z,74.04
2019-05-17T00:23:41.523Z,74.11
2019-05-17T00:27:06.745Z,74.18
2019-05-17T00:30:30.066Z,74.39
2019-05-17T00:33:53.423Z,73.98
2019-05-17T00:37:17.765Z,73.79
2019-05-17T00:40:41.206Z,73.97
2019-05-17T00:44:06.332Z,73.71
2019-05-17T00:47:29.766Z,73.67
2019-05-17T00:50:54.225Z,73.90
2019-05-17T00:54:17.733Z,74.21
2019-05-17T00:57:40.935Z,74.84
2019-05-17T01:01:04.145Z,74.33
2019-05-17T01:04:27.681Z,73.90
2019-05-17T01:07:50.935Z,74.22
2019-05-17T01:11:16.507Z,74.51
2019-05-17T01:14:39.926Z,73.77
2019-05-17T01:18:03.109Z,74.60
2019-05-17T01:21:26.369Z,74.19
2019-05-17T01:24:50.014Z,74.22
2019-05-17T01:28:13.206Z,73.86
2019-05-17T01:31:37.327Z,74.61
2019-05-17T01:35:00.886Z,73.65
2019-05-17T01:38:26.939Z,73.90
2019-05-17T01:41:50.259Z,74.01
2019-05-17T01:45:16.472Z,73.81
2019-05-17T01:48:39.467Z,73.52
2019-05-17T01:52:03.773Z,73.16
2019-05-17T01:55:27.028Z,73.67
2019-05-17T01:58:50.882Z,73.77
2019-05-17T02:02:17.318Z,72.99
2019-05-17T02:05:40.671Z,72.81
2019-05-17T02:09:06.351Z,72.54
2019-05-17T02:12:30.113Z,72.99
2019-05-17T02:15:53.204Z,72.84
2019-05-17T02:19:17.412Z,73.50
2019-05-17T02:22:40.835Z,73.46
2019-05-17T02:26:06.475Z,73.66
2019-05-17T02:29:29.461Z,73.25
2019-05-17T02:32:54.067Z,73.42
2019-05-17T02:36:17.444Z,73.23
2019-05-17T02:39:56.586Z,73.66
2019-05-17T02:43:06.036Z,73.67
2019-05-17T02:46:29.174Z,73.80
2019-05-17T02:49:52.613Z,74.01
2019-05-17T02:53:15.801Z,74.16
2019-05-17T02:56:38.968Z,73.71
2019-05-17T03:00:04.310Z,74.29
2019-05-17T03:03:28.243Z,74.02
2019-05-17T03:06:53.202Z,74.06
2019-05-17T03:10:24.101Z,74.21
2019-05-17T03:13:43.431Z,74.22
2019-05-17T03:17:06.915Z,73.52
2019-05-17T03:20:32.799Z,73.69
2019-05-17T03:23:55.554Z,73.25
2019-05-17T03:27:19.043Z,73.17
2019-05-17T03:30:46.597Z,73.78
2019-05-17T03:34:09.062Z,73.96
2019-05-17T03:37:37.911Z,73.66
2019-05-17T03:41:13.369Z,73.37
2019-05-17T03:44:26.008Z,73.21
2019-05-17T03:47:49.117Z,73.34
2019-05-17T03:51:13.125Z,73.91
2019-05-17T03:54:36.705Z,74.65
2019-05-17T03:58:03.091Z,73.06
2019-05-17T04:01:25.180Z,73.66
2019-05-17T04:04:48.508Z,73.69
2019-05-17T04:08:13.882Z,73.84
2019-05-17T04:11:37.012Z,73.83
2019-05-17T04:15:03.245Z,73.50
2019-05-17T04:18:25.787Z,73.43
2019-05-17T04:21:49.049Z,73.53
2019-05-17T04:25:13.701Z,73.24
2019-05-17T04:28:37.347Z,72.92
2019-05-17T04:32:03.554Z,73.23
2019-05-17T04:35:26.615Z,72.60
2019-05-17T04:38:52.604Z,72.41
2019-05-17T04:42:22.407Z,73.23
2019-05-17T04:45:44.179Z,72.89
2019-05-17T04:49:07.301Z,72.57
2019-05-17T04:52:33.484Z,72.63
2019-05-17T04:55:55.629Z,72.00
2019-05-17T04:59:18.768Z,71.42
2019-05-17T05:02:43.621Z,71.84
2019-05-17T05:06:07.123Z,72.05
2019-05-17T05:09:32.257Z,70.96
2019-05-17T05:12:56.076Z,70.54
2019-05-17T05:16:22.448Z,71.31
2019-05-17T05:19:44.642Z,70.79
2019-05-17T05:23:08.998Z,71.27
2019-05-17T05:26:32.278Z,70.71
2019-05-17T05:29:55.527Z,71.00
2019-05-17T05:33:18.662Z,69.83
2019-05-17T05:36:42.037Z,69.32
2019-05-17T05:40:05.763Z,69.09
2019-05-17T05:43:32.433Z,69.70
2019-05-17T05:46:55.243Z,70.07
2019-05-17T05:50:18.567Z,70.18
2019-05-17T05:53:42.118Z,68.83
2019-05-17T05:57:05.845Z,68.55
2019-05-17T06:00:29.157Z,67.99
2019-05-17T06:03:52.436Z,67.85
2019-05-17T06:07:15.683Z,68.55
2019-05-17T06:10:39.644Z,66.98
2019-05-17T06:14:03.940Z,67.71
2019-05-17T06:17:27.155Z,67.45
2019-05-17T06:20:52.358Z,66.94
2019-05-17T06:24:15.936Z,65.79
2019-05-17T06:27:41.368Z,66.74
2019-05-17T06:31:04.255Z,66.48
2019-05-17T06:34:27.343Z,65.24
2019-05-17T06:37:50.749Z,63.70
2019-05-17T06:41:13.883Z,64.68
2019-05-17T06:44:37.545Z,65.29
2019-05-17T06:48:02.496Z,64.22
2019-05-17T06:51:25.849Z,63.46
2019-05-17T06:54:49.434Z,63.50
2019-05-17T06:58:12.604Z,62.46
2019-05-17T07:01:35.742Z,62.99
2019-05-17T07:05:02.381Z,62.65
2019-05-17T07:08:26.725Z,61.65
2019-05-17T07:11:51.321Z,61.44
2019-05-17T07:15:14.934Z,61.92
2019-05-17T07:18:39.958Z,62.04
2019-05-17T07:22:03.308Z,62.64
2019-05-17T07:25:30.287Z,61.58
2019-05-17T07:28:53.311Z,60.68
2019-05-17T07:32:19.293Z,60.58
2019-05-17T07:35:42.143Z,61.17
2019-05-17T07:39:05.373Z,61.14
2019-05-17T07:42:29.853Z,61.03
2019-05-17T07:45:53.174Z,60.36
2019-05-17T07:49:16.617Z,60.46
2019-05-17T07:52:40.068Z,60.46
2019-05-17T07:56:03.745Z,60.45
2019-05-17T07:59:29.460Z,60.35
2019-05-17T08:02:52.586Z,61.07
2019-05-17T08:06:15.735Z,61.67
2019-05-17T08:09:40.428Z,61.00
2019-05-17T08:13:03.913Z,61.97
2019-05-17T08:16:27.421Z,59.05
2019-05-17T08:19:50.559Z,59.87
2019-05-17T08:23:14.032Z,60.07
2019-05-17T08:26:37.384Z,59.56
2019-05-17T08:30:00.625Z,58.18
2019-05-17T08:33:23.865Z,57.84
2019-05-17T08:36:47.188Z,58.05
2019-05-17T08:40:11.050Z,58.06
2019-05-17T08:43:42.574Z,58.71
2019-05-17T08:46:59.590Z,58.85
2019-05-17T08:50:23.893Z,57.72
2019-05-17T08:53:49.171Z,58.41
2019-05-17T08:57:12.205Z,60.56
2019-05-17T09:00:35.405Z,59.94
2019-05-17T09:03:59.858Z,59.54
2019-05-17T09:07:23.367Z,60.18
2019-05-17T09:10:46.489Z,59.32
2019-05-17T09:14:10.449Z,59.50
2019-05-17T09:17:33.941Z,58.47
2019-05-17T09:20:57.438Z,58.43
2019-05-17T09:24:20.811Z,58.30
2019-05-17T09:27:44.149Z,58.70
2019-05-17T09:31:07.257Z,58.81
2019-05-17T09:34:30.480Z,57.07
2019-05-17T09:37:53.699Z,57.93
2019-05-17T09:41:17.135Z,59.60
2019-05-17T09:44:40.535Z,58.58
2019-05-17T09:48:04.317Z,59.31
2019-05-17T09:51:27.559Z,60.61
2019-05-17T09:54:50.660Z,59.72
2019-05-17T09:58:13.836Z,59.84
2019-05-17T10:01:39.301Z,59.90
2019-05-17T10:05:02.078Z,59.22
2019-05-17T10:08:25.600Z,58.67
2019-05-17T10:11:49.318Z,57.75
2019-05-17T10:15:13.536Z,58.96
2019-05-17T10:18:36.943Z,58.26
2019-05-17T10:22:00.268Z,58.58
2019-05-17T10:25:24.521Z,58.88
2019-05-17T10:28:47.796Z,59.24
2019-05-17T10:32:11.191Z,58.98
2019-05-17T10:35:34.544Z,58.48
2019-05-17T10:38:59.239Z,57.27
2019-05-17T10:42:22.784Z,56.86
2019-05-17T10:45:46.052Z,56.77
2019-05-17T10:49:10.902Z,56.23
2019-05-17T10:52:34.357Z,56.67
2019-05-17T10:56:00.415Z,58.10
2019-05-17T10:59:23.319Z,57.41
2019-05-17T11:02:46.504Z,57.70
2019-05-17T11:06:10.967Z,58.47
2019-05-17T11:09:34.549Z,59.11
2019-05-17T11:12:57.835Z,58.69
2019-05-17T11:16:24.316Z,58.55
2019-05-17T11:19:47.539Z,58.88
2019-05-17T11:23:10.896Z,58.29
2019-05-17T11:26:34.030Z,58.50
2019-05-17T11:29:57.440Z,58.80
2019-05-17T11:33:20.718Z,60.70
2019-05-17T11:36:43.848Z,60.38
2019-05-17T11:40:08.409Z,61.94
2019-05-17T11:43:32.176Z,63.02
2019-05-17T11:46:55.277Z,63.91
2019-05-17T11:50:18.616Z,64.12
2019-05-17T11:53:41.727Z,63.73
2019-05-17T11:57:05.011Z,64.29
2019-05-17T12:00:29.683Z,62.52
2019-05-17T12:03:52.809Z,62.62
2019-05-17T12:07:16.165Z,61.66
2019-05-17T12:10:39.417Z,59.76
2019-05-17T12:14:03.093Z,60.57
2019-05-17T12:17:26.203Z,62.12
2019-05-17T12:20:49.324Z,64.14
2019-05-17T12:24:13.000Z,63.15
2019-05-17T12:27:36.832Z,65.89
2019-05-17T12:31:00.142Z,67.06
2019-05-17T12:34:23.541Z,68.02
2019-05-17T12:37:46.830Z,68.65
2019-05-17T12:41:09.954Z,69.55
2019-05-17T12:44:36.923Z,67.02
2019-05-17T12:47:58.984Z,67.26
2019-05-17T12:51:22.051Z,67.68
2019-05-17T12:54:45.347Z,66.95
2019-05-17T12:58:09.717Z,66.23
2019-05-17T13:01:33.358Z,65.96
2019-05-17T13:04:56.715Z,66.71
2019-05-17T13:08:20.014Z,68.35
2019-05-17T13:11:43.270Z,68.99
2019-05-17T13:15:07.818Z,69.72
2019-05-17T13:18:31.025Z,71.22
2019-05-17T13:21:54.213Z,71.79
2019-05-17T13:25:17.787Z,73.61
2019-05-17T13:28:41.093Z,74.39
2019-05-17T13:32:04.178Z,75.06
2019-05-17T13:35:27.394Z,75.47
2019-05-17T13:38:50.653Z,78.43
2019-05-17T13:42:13.973Z,78.27
2019-05-17T13:45:37.118Z,79.84
2019-05-17T13:49:00.540Z,78.95
2019-05-17T13:52:23.749Z,78.53
2019-05-17T13:55:46.807Z,77.71
2019-05-17T13:59:10.230Z,78.50
2019-05-17T14:02:33.604Z,78.21
2019-05-17T14:05:56.923Z,77.40
2019-05-17T14:09:20.310Z,77.16
2019-05-17T14:12:43.504Z,76.46
2019-05-17T14:16:06.620Z,77.39
2019-05-17T14:19:29.833Z,77.01
2019-05-17T14:22:53.183Z,76.61
2019-05-17T14:26:16.263Z,76.04
2019-05-17T14:29:39.601Z,75.38
2019-05-17T14:33:02.702Z,75.29
2019-05-17T14:36:25.842Z,76.57
2019-05-17T14:39:49.139Z,77.40
2019-05-17T14:43:13.452Z,77.78
2019-05-17T14:46:36.581Z,76.98
2019-05-17T14:49:59.750Z,76.81
2019-05-17T14:53:23.084Z,77.08
2019-05-17T14:56:46.292Z,76.84
2019-05-17T15:00:09.655Z,75.46
2019-05-17T15:03:32.988Z,75.55
2019-05-17T15:06:56.271Z,74.50
2019-05-17T15:10:19.733Z,74.90
2019-05-17T15:13:42.944Z,74.02
2019-05-17T15:17:06.224Z,75.07
2019-05-17T15:20:29.384Z,74.13
2019-05-17T15:23:52.575Z,75.36
2019-05-17T15:27:15.841Z,75.26
2019-05-17T15:30:39.125Z,75.67
2019-05-17T15:34:04.250Z,77.25
2019-05-17T15:37:27.559Z,76.78
2019-05-17T15:40:50.795Z,77.23
2019-05-17T15:44:14.015Z,76.45
2019-05-17T15:47:37.257Z,78.65
2019-05-17T15:51:01.781Z,77.51
2019-05-17T15:54:25.099Z,76.94
2019-05-17T15:57:48.204Z,78.38
2019-05-17T16:01:11.758Z,78.08
2019-05-17T16:04:35.183Z,79.39
2019-05-17T16:07:58.316Z,80.50
2019-05-17T16:11:21.811Z,78.12
2019-05-17T16:14:45.144Z,79.51
2019-05-17T16:18:08.304Z,79.82
2019-05-17T16:21:31.368Z,78.99
2019-05-17T16:24:54.586Z,79.16
2019-05-17T16:28:17.971Z,77.88
2019-05-17T16:31:41.114Z,78.74
2019-05-17T16:35:05.456Z,79.00
2019-05-17T16:38:28.705Z,79.07
2019-05-17T16:41:51.907Z,78.56
2019-05-17T16:45:19.320Z,79.30
2019-05-17T16:48:42.746Z,78.43
2019-05-17T16:52:06.299Z,77.73
2019-05-17T16:55:29.407Z,78.63
2019-05-17T16:58:52.728Z,79.73
2019-05-17T17:02:16.099Z,78.93
2019-05-17T17:05:39.300Z,77.97
2019-05-17T17:09:04.165Z,77.80
2019-05-17T17:12:28.478Z,78.06
2019-05-17T17:15:52.336Z,77.84
2019-05-17T17:19:15.736Z,77.59
2019-05-17T17:22:39.185Z,77.13
2019-05-17T17:26:02.861Z,77.58
2019-05-17T17:29:26.451Z,77.66
2019-05-17T17:32:49.715Z,77.99
2019-05-17T17:36:12.887Z,78.14
2019-05-17T17:39:36.154Z,77.99
2019-05-17T17:42:59.990Z,77.80
2019-05-17T17:46:23.226Z,78.43
2019-05-17T17:49:49.873Z,78.65
2019-05-17T17:53:13.187Z,78.75
2019-05-17T17:56:37.454Z,79.25
2019-05-17T18:00:01.975Z,79.80
2019-05-17T18:03:27.110Z,79.63
2019-05-17T18:06:51.301Z,79.85
2019-05-17T18:10:30.128Z,79.26
2019-05-17T18:13:54.039Z,79.60
2019-05-17T18:17:18.010Z,79.54
2019-05-17T18:20:41.253Z,79.28
2019-05-17T18:24:05.474Z,79.73
2019-05-17T18:27:28.624Z,79.87
2019-05-17T18:30:52.967Z,80.15
2019-05-17T18:34:21.559Z,79.57
2019-05-17T18:37:44.863Z,80.22
2019-05-17T18:41:08.697Z,80.04
2019-05-17T18:44:32.299Z,80.41
2019-05-17T18:47:58.404Z,80.12
2019-05-17T18:51:23.611Z,80.42
2019-05-17T18:54:46.944Z,80.46
2019-05-17T18:58:11.261Z,80.41
2019-05-17T19:01:34.756Z,80.69
2019-05-17T19:04:59.105Z,81.18
2019-05-17T19:08:22.586Z,80.79
2019-05-17T19:11:45.859Z,81.04
2019-05-17T19:15:10.771Z,81.44
2019-05-17T19:18:35.646Z,81.41
2019-05-17T19:21:59.385Z,81.64
2019-05-17T19:25:24.198Z,81.79
2019-05-17T19:28:47.684Z,81.65
2019-05-17T19:32:11.170Z,81.56
2019-05-17T19:35:37.833Z,81.68
2019-05-17T19:39:01.439Z,81.53
2019-05-17T19:42:25.976Z,81.65
2019-05-17T19:45:49.579Z,81.88
2019-05-17T19:49:14.158Z,81.91
2019-05-17T19:52:37.801Z,82.14
2019-05-17T19:56:01.199Z,81.75
2019-05-17T19:59:24.845Z,81.78
2019-05-17T20:02:48.468Z,82.03
2019-05-17T20:06:12.659Z,82.41
2019-05-17T20:09:36.633Z,81.93
2019-05-17T20:13:01.092Z,82.19
2019-05-17T20:16:24.674Z,82.40
2019-05-17T20:19:48.495Z,82.12
2019-05-17T20:23:12.645Z,82.06
2019-05-17T20:26:36.072Z,82.20
2019-05-17T20:29:59.753Z,82.17
2019-05-17T20:33:23.297Z,82.43
2019-05-17T20:36:47.162Z,82.40
2019-05-17T20:40:11.071Z,82.38
2019-05-17T20:43:34.374Z,82.08
2019-05-17T20:46:57.858Z,82.27
2019-05-17T20:50:21.454Z,82.46
2019-05-17T20:53:45.011Z,82.49
2019-05-17T20:57:08.627Z,82.29
2019-05-17T21:00:31.991Z,82.06
2019-05-17T21:03:55.469Z,82.44
2019-05-17T21:07:26.960Z,82.43
2019-05-17T21:10:51.059Z,82.46
2019-05-17T21:14:14.910Z,82.17
2019-05-17T21:25:26.093Z,82.07
2019-05-17T21:28:49.289Z,82.28
2019-05-17T21:32:13.870Z,82.21
2019-05-17T21:35:37.063Z,82.10
2019-05-17T21:39:00.449Z,82.18
2019-05-17T21:42:23.710Z,82.53
2019-05-17T21:45:46.991Z,82.42
2019-05-17T21:49:10.347Z,82.37
2019-05-17T21:52:33.576Z,82.29
2019-05-17T21:55:57.219Z,82.31
2019-05-17T21:59:20.841Z,82.27
2019-05-17T22:02:44.069Z,82.31
2019-05-17T22:06:20.142Z,82.49
2019-05-17T22:09:44.546Z,82.69
2019-05-17T22:13:09.065Z,82.29
2019-05-17T22:16:32.601Z,82.65
2019-05-17T22:19:57.053Z,82.33
2019-05-17T22:23:20.479Z,82.58
2019-05-17T22:26:43.609Z,82.42
2019-05-17T22:30:07.527Z,82.11
2019-05-17T22:33:31.578Z,82.20
2019-05-17T22:36:54.882Z,82.26
2019-05-17T22:40:18.591Z,82.37
2019-05-17T22:43:41.731Z,82.24
2019-05-17T22:47:05.233Z,82.37
2019-05-17T22:50:28.439Z,82.22
2019-05-17T22:53:51.835Z,82.16
2019-05-17T22:57:15.604Z,82.38
2019-05-17T23:00:39.244Z,82.02
2019-05-17T23:04:02.468Z,81.87
2019-05-17T23:07:25.606Z,81.97
2019-05-17T23:10:48.833Z,81.92
2019-05-17T23:14:12.088Z,81.79
2019-05-17T23:17:35.245Z,81.83
2019-05-17T23:20:58.375Z,81.51
2019-05-17T23:24:21.616Z,81.62
2019-05-17T23:27:45.057Z,81.71
2019-05-17T23:31:08.522Z,81.94
2019-05-17T23:34:31.752Z,81.24
2019-05-17T23:37:55.098Z,81.39
2019-05-17T23:41:18.273Z,81.18
2019-05-17T23:44:41.353Z,81.54
2019-05-17T23:48:04.660Z,81.72
2019-05-17T23:51:27.904Z,81.37
2019-05-17T23:54:51.341Z,81.51
2019-05-17T23:58:14.400Z,81.72
